createdAt,value
2017-11-16T00:00:17.419Z,0.00
2017-11-16T00:01:17.396Z,0.00
2017-11-16T00:02:17.369Z,0.00
2017-11-16T00:03:17.351Z,0.00
2017-11-16T00:04:17.331Z,0.00
2017-11-16T00:05:17.303Z,0.00
2017-11-16T00:06:17.277Z,0.00
2017-11-16T00:07:17.273Z,0.00
2017-11-16T00:08:17.240Z,0.00
2017-11-16T00:09:17.217Z,0.00
2017-11-16T00:10:17.190Z,0.00
2017-11-16T00:11:17.181Z,0.00
2017-11-16T00:12:17.155Z,0.00
2017-11-16T00:13:17.121Z,0.00
2017-11-16T00:14:17.115Z,0.00
2017-11-16T00:15:17.075Z,0.00
2017-11-16T00:16:17.052Z,0.00
2017-11-16T00:17:17.031Z,0.00
2017-11-16T00:18:17.005Z,0.00
2017-11-16T00:19:16.998Z,0.00
2017-11-16T00:20:17.012Z,0.00
2017-11-16T00:21:16.950Z,0.00
2017-11-16T00:22:16.913Z,0.00
2017-11-16T00:23:16.893Z,0.00
2017-11-16T00:24:16.880Z,0.00
2017-11-16T00:25:16.842Z,0.00
2017-11-16T00:26:16.834Z,0.00
2017-11-16T00:27:16.800Z,0.00
2017-11-16T00:28:16.796Z,0.00
2017-11-16T00:29:16.752Z,0.00
2017-11-16T00:30:16.731Z,0.00
2017-11-16T00:31:16.711Z,0.00
2017-11-16T00:32:16.683Z,0.00
2017-11-16T00:33:16.663Z,0.00
2017-11-16T00:34:16.641Z,0.00
2017-11-16T00:35:16.643Z,0.00
2017-11-16T00:36:16.595Z,0.00
2017-11-16T00:37:16.583Z,0.00
2017-11-16T00:38:16.557Z,0.00
2017-11-16T00:39:16.524Z,0.00
2017-11-16T00:40:16.501Z,0.00
2017-11-16T00:41:16.478Z,0.00
2017-11-16T00:42:16.455Z,0.00
2017-11-16T00:43:16.441Z,0.00
2017-11-16T00:44:16.416Z,0.00
2017-11-16T00:45:16.394Z,0.00
2017-11-16T00:46:16.369Z,0.00
2017-11-16T00:47:16.346Z,0.00
2017-11-16T00:48:16.322Z,0.00
2017-11-16T00:49:16.296Z,0.00
2017-11-16T00:50:16.286Z,0.00
2017-11-16T00:51:16.247Z,0.00
2017-11-16T00:52:16.241Z,0.00
2017-11-16T00:53:16.203Z,0.00
2017-11-16T00:54:16.187Z,0.00
2017-11-16T00:55:16.167Z,0.00
2017-11-16T00:56:16.140Z,0.00
2017-11-16T00:57:16.118Z,0.00
2017-11-16T00:58:16.088Z,0.00
2017-11-16T00:59:16.112Z,0.00
2017-11-16T01:00:16.105Z,0.00
2017-11-16T01:01:16.020Z,0.00
2017-11-16T01:02:16.011Z,0.00
2017-11-16T01:03:15.976Z,0.00
2017-11-16T01:04:15.953Z,0.00
2017-11-16T01:05:15.932Z,0.00
2017-11-16T01:06:15.906Z,0.00
2017-11-16T01:07:15.882Z,0.00
2017-11-16T01:08:15.863Z,0.00
2017-11-16T01:09:15.854Z,0.00
2017-11-16T01:10:15.818Z,0.00
2017-11-16T01:11:15.797Z,0.00
2017-11-16T01:12:15.771Z,0.00
2017-11-16T01:13:15.749Z,0.00
2017-11-16T01:14:15.731Z,0.00
2017-11-16T01:15:15.706Z,0.00
2017-11-16T01:16:15.684Z,0.00
2017-11-16T01:17:15.660Z,0.00
2017-11-16T01:18:15.635Z,0.00
2017-11-16T01:19:15.628Z,0.00
2017-11-16T01:20:15.587Z,0.00
2017-11-16T01:21:15.575Z,0.00
2017-11-16T01:22:15.549Z,0.00
2017-11-16T01:23:15.535Z,0.00
2017-11-16T01:24:15.494Z,0.00
2017-11-16T01:25:15.473Z,0.00
2017-11-16T01:26:15.450Z,0.00
2017-11-16T01:27:15.427Z,0.00
2017-11-16T01:28:15.407Z,0.00
2017-11-16T01:29:15.382Z,0.00
2017-11-16T01:30:15.357Z,0.00
2017-11-16T01:31:15.338Z,0.00
2017-11-16T01:32:15.313Z,0.00
2017-11-16T01:33:15.290Z,0.00
2017-11-16T01:34:15.270Z,0.00
2017-11-16T01:35:15.241Z,0.00
2017-11-16T01:36:15.225Z,0.00
2017-11-16T01:37:15.202Z,0.00
2017-11-16T01:38:15.177Z,0.00
2017-11-16T01:39:15.184Z,0.00
2017-11-16T01:40:15.175Z,0.00
2017-11-16T01:41:15.104Z,0.00
2017-11-16T01:42:15.081Z,0.00
2017-11-16T01:43:15.060Z,0.00
2017-11-16T01:44:15.041Z,0.00
2017-11-16T01:45:15.020Z,0.00
2017-11-16T01:46:15.002Z,0.00
2017-11-16T01:47:14.984Z,0.00
2017-11-16T01:48:14.942Z,0.00
2017-11-16T01:49:14.922Z,0.00
2017-11-16T01:50:14.903Z,0.00
2017-11-16T01:51:14.882Z,0.00
2017-11-16T01:52:14.864Z,0.00
2017-11-16T01:53:14.838Z,0.00
2017-11-16T01:54:14.816Z,0.00
2017-11-16T01:55:14.793Z,0.00
2017-11-16T01:56:14.772Z,0.00
2017-11-16T01:57:14.747Z,0.00
2017-11-16T01:58:14.716Z,0.00
2017-11-16T01:59:14.694Z,0.00
2017-11-16T02:00:14.665Z,0.00
2017-11-16T02:01:14.646Z,0.00
2017-11-16T02:02:14.630Z,0.00
2017-11-16T02:03:14.604Z,0.00
2017-11-16T02:04:14.583Z,0.00
2017-11-16T02:05:14.552Z,0.00
2017-11-16T02:06:14.529Z,0.00
2017-11-16T02:07:14.509Z,0.00
2017-11-16T02:08:14.483Z,0.00
2017-11-16T02:09:14.460Z,0.00
2017-11-16T02:10:14.433Z,0.00
2017-11-16T02:11:14.443Z,0.00
2017-11-16T02:12:14.389Z,0.00
2017-11-16T02:13:14.369Z,0.00
2017-11-16T02:14:14.345Z,0.00
2017-11-16T02:15:14.323Z,0.00
2017-11-16T02:16:14.300Z,0.00
2017-11-16T02:17:14.274Z,0.00
2017-11-16T02:18:14.301Z,0.00
2017-11-16T02:19:14.282Z,0.00
2017-11-16T02:20:14.213Z,0.00
2017-11-16T02:21:14.196Z,0.00
2017-11-16T02:22:14.161Z,0.00
2017-11-16T02:23:14.138Z,0.00
2017-11-16T02:24:14.114Z,0.00
2017-11-16T02:25:14.092Z,0.00
2017-11-16T02:26:14.066Z,0.00
2017-11-16T02:27:14.050Z,0.00
2017-11-16T02:28:14.028Z,0.00
2017-11-16T02:29:13.993Z,0.00
2017-11-16T02:30:13.978Z,0.00
2017-11-16T02:31:13.962Z,0.00
2017-11-16T02:32:13.927Z,0.00
2017-11-16T02:33:13.919Z,0.00
2017-11-16T02:34:13.883Z,0.00
2017-11-16T02:35:13.878Z,0.00
2017-11-16T02:36:13.833Z,0.00
2017-11-16T02:37:13.847Z,0.00
2017-11-16T02:38:13.793Z,0.00
2017-11-16T02:39:13.771Z,0.00
2017-11-16T02:40:13.752Z,0.00
2017-11-16T02:41:13.717Z,0.00
2017-11-16T02:42:13.698Z,0.00
2017-11-16T02:43:13.677Z,0.00
2017-11-16T02:44:13.655Z,0.00
2017-11-16T02:45:13.636Z,0.00
2017-11-16T02:46:13.601Z,0.00
2017-11-16T02:47:13.580Z,0.00
2017-11-16T02:48:13.596Z,0.00
2017-11-16T02:49:37.217Z,0.00
2017-11-16T02:50:13.522Z,0.00
2017-11-16T02:51:13.487Z,0.00
2017-11-16T02:52:13.482Z,0.00
2017-11-16T02:53:13.440Z,0.00
2017-11-16T02:54:13.420Z,0.00
2017-11-16T02:55:13.399Z,0.00
2017-11-16T02:56:13.368Z,0.00
2017-11-16T02:57:13.349Z,0.00
2017-11-16T02:58:13.352Z,0.00
2017-11-16T02:59:13.352Z,0.00
2017-11-16T03:00:13.277Z,0.00
2017-11-16T03:01:13.258Z,0.00
2017-11-16T03:02:13.247Z,0.00
2017-11-16T03:03:13.209Z,0.00
2017-11-16T03:04:13.189Z,0.00
2017-11-16T03:05:13.166Z,0.00
2017-11-16T03:06:13.136Z,0.00
2017-11-16T03:07:13.127Z,0.00
2017-11-16T03:08:13.091Z,0.00
2017-11-16T03:09:13.091Z,0.00
2017-11-16T03:10:13.044Z,0.00
2017-11-16T03:11:13.028Z,0.00
2017-11-16T03:12:13.011Z,0.00
2017-11-16T03:13:12.976Z,0.00
2017-11-16T03:14:12.955Z,0.00
2017-11-16T03:15:12.927Z,0.00
2017-11-16T03:16:12.936Z,0.00
2017-11-16T03:17:12.890Z,0.00
2017-11-16T03:18:12.859Z,0.00
2017-11-16T03:19:12.848Z,0.00
2017-11-16T03:20:12.817Z,0.00
2017-11-16T03:21:12.792Z,0.00
2017-11-16T03:22:12.774Z,0.00
2017-11-16T03:23:12.741Z,0.00
2017-11-16T03:24:12.731Z,0.00
2017-11-16T03:25:12.696Z,0.00
2017-11-16T03:26:12.705Z,0.00
2017-11-16T03:27:12.656Z,0.00
2017-11-16T03:28:12.622Z,0.00
2017-11-16T03:29:12.614Z,0.00
2017-11-16T03:30:12.582Z,0.00
2017-11-16T03:31:12.557Z,0.00
2017-11-16T03:32:12.538Z,0.00
2017-11-16T03:33:12.505Z,0.00
2017-11-16T03:34:12.486Z,0.00
2017-11-16T03:35:12.460Z,0.00
2017-11-16T03:36:12.458Z,0.00
2017-11-16T03:37:12.472Z,0.00
2017-11-16T03:38:12.393Z,0.00
2017-11-16T03:39:12.371Z,0.00
2017-11-16T03:40:12.344Z,0.00
2017-11-16T03:41:12.320Z,0.00
2017-11-16T03:42:12.296Z,0.00
2017-11-16T03:43:12.274Z,0.00
2017-11-16T03:44:12.257Z,0.00
2017-11-16T03:45:12.225Z,0.00
2017-11-16T03:46:12.217Z,0.00
2017-11-16T03:47:12.183Z,0.00
2017-11-16T03:48:12.161Z,0.00
2017-11-16T03:49:12.133Z,0.00
2017-11-16T03:50:26.742Z,0.00
2017-11-16T03:51:12.096Z,0.00
2017-11-16T03:52:12.076Z,0.00
2017-11-16T03:53:12.066Z,0.00
2017-11-16T03:54:12.027Z,0.00
2017-11-16T03:55:11.999Z,0.00
2017-11-16T03:56:11.980Z,0.00
2017-11-16T03:57:11.949Z,0.00
2017-11-16T03:58:11.928Z,0.00
2017-11-16T03:59:11.902Z,0.00
2017-11-16T04:00:11.877Z,0.00
2017-11-16T04:01:11.860Z,0.00
2017-11-16T04:02:11.834Z,0.00
2017-11-16T04:03:11.816Z,0.00
2017-11-16T04:04:11.790Z,0.00
2017-11-16T04:05:11.766Z,0.00
2017-11-16T04:06:11.738Z,0.00
2017-11-16T04:07:11.723Z,0.00
2017-11-16T04:08:11.716Z,0.00
2017-11-16T04:09:11.667Z,0.00
2017-11-16T04:10:11.667Z,0.00
2017-11-16T04:11:11.632Z,0.00
2017-11-16T04:12:11.609Z,0.00
2017-11-16T04:13:11.590Z,0.00
2017-11-16T04:14:11.560Z,0.00
2017-11-16T04:15:11.533Z,0.00
2017-11-16T04:16:11.511Z,0.00
2017-11-16T04:17:11.527Z,0.00
2017-11-16T04:18:11.468Z,0.00
2017-11-16T04:19:11.446Z,0.00
2017-11-16T04:20:11.427Z,0.00
2017-11-16T04:21:11.400Z,0.00
2017-11-16T04:22:11.373Z,0.00
2017-11-16T04:23:11.349Z,0.00
2017-11-16T04:24:11.323Z,0.00
2017-11-16T04:25:11.304Z,0.00
2017-11-16T04:26:11.284Z,0.00
2017-11-16T04:27:11.268Z,0.00
2017-11-16T04:28:11.232Z,0.00
2017-11-16T04:29:11.216Z,0.00
2017-11-16T04:30:11.188Z,0.00
2017-11-16T04:31:11.168Z,0.00
2017-11-16T04:32:11.166Z,0.00
2017-11-16T04:33:11.116Z,0.00
2017-11-16T04:34:11.110Z,0.00
2017-11-16T04:35:11.072Z,0.00
2017-11-16T04:36:11.048Z,0.00
2017-11-16T04:37:11.032Z,0.00
2017-11-16T04:38:10.999Z,0.00
2017-11-16T04:39:10.979Z,0.00
2017-11-16T04:40:10.959Z,0.00
2017-11-16T04:41:10.935Z,0.00
2017-11-16T04:42:10.947Z,0.00
2017-11-16T04:43:10.888Z,0.00
2017-11-16T04:44:10.874Z,0.00
2017-11-16T04:45:10.841Z,0.00
2017-11-16T04:46:10.824Z,0.00
2017-11-16T04:47:10.799Z,0.00
2017-11-16T04:48:10.778Z,0.00
2017-11-16T04:49:10.776Z,0.00
2017-11-16T04:50:10.731Z,0.00
2017-11-16T04:51:10.723Z,0.00
2017-11-16T04:52:10.682Z,0.00
2017-11-16T04:53:10.657Z,0.00
2017-11-16T04:54:10.635Z,0.00
2017-11-16T04:55:10.609Z,0.00
2017-11-16T04:56:10.607Z,0.00
2017-11-16T04:57:10.567Z,0.00
2017-11-16T04:58:10.548Z,0.00
2017-11-16T04:59:10.524Z,0.00
2017-11-16T05:00:10.494Z,0.00
2017-11-16T05:01:10.477Z,0.00
2017-11-16T05:02:10.446Z,0.00
2017-11-16T05:03:10.430Z,0.00
2017-11-16T05:04:10.404Z,0.00
2017-11-16T05:05:10.379Z,0.00
2017-11-16T05:06:10.365Z,0.00
2017-11-16T05:07:10.336Z,0.00
2017-11-16T05:08:10.337Z,0.00
2017-11-16T05:09:10.284Z,0.00
2017-11-16T05:10:10.267Z,0.00
2017-11-16T05:11:10.246Z,0.00
2017-11-16T05:12:10.218Z,0.00
2017-11-16T05:13:10.197Z,0.00
2017-11-16T05:14:10.170Z,0.00
2017-11-16T05:15:10.154Z,0.00
2017-11-16T05:16:10.122Z,0.00
2017-11-16T05:17:10.105Z,0.00
2017-11-16T05:18:10.092Z,0.00
2017-11-16T05:19:10.059Z,0.00
2017-11-16T05:20:10.036Z,0.00
2017-11-16T05:21:10.007Z,0.00
2017-11-16T05:22:09.987Z,0.00
2017-11-16T05:23:09.970Z,0.00
2017-11-16T05:24:09.939Z,0.00
2017-11-16T05:25:09.931Z,0.00
2017-11-16T05:26:09.894Z,0.00
2017-11-16T05:27:09.870Z,0.00
2017-11-16T05:28:09.847Z,0.00
2017-11-16T05:29:09.825Z,0.00
2017-11-16T05:30:09.804Z,0.00
2017-11-16T05:31:09.777Z,0.00
2017-11-16T05:32:09.768Z,0.00
2017-11-16T05:33:09.731Z,0.00
2017-11-16T05:34:09.714Z,0.00
2017-11-16T05:35:09.713Z,0.00
2017-11-16T05:36:09.721Z,0.00
2017-11-16T05:37:09.717Z,0.00
2017-11-16T05:38:09.626Z,0.00
2017-11-16T05:39:09.591Z,0.00
2017-11-16T05:40:09.574Z,0.00
2017-11-16T05:41:09.552Z,0.00
2017-11-16T05:42:09.539Z,0.00
2017-11-16T05:43:09.503Z,0.00
2017-11-16T05:44:09.480Z,0.00
2017-11-16T05:45:09.457Z,0.00
2017-11-16T05:46:09.429Z,0.00
2017-11-16T05:47:09.407Z,0.00
2017-11-16T05:48:09.382Z,0.00
2017-11-16T05:49:09.381Z,0.00
2017-11-16T05:50:09.363Z,0.00
2017-11-16T05:51:09.313Z,0.00
2017-11-16T05:52:09.298Z,0.00
2017-11-16T05:53:09.269Z,0.00
2017-11-16T05:54:09.260Z,0.00
2017-11-16T05:55:09.219Z,0.00
2017-11-16T05:56:09.223Z,0.00
2017-11-16T05:57:09.173Z,0.00
2017-11-16T05:58:09.151Z,0.00
2017-11-16T05:59:09.142Z,0.00
2017-11-16T06:00:09.115Z,0.00
2017-11-16T06:01:09.082Z,0.00
2017-11-16T06:02:09.064Z,0.00
2017-11-16T06:03:09.035Z,0.00
2017-11-16T06:04:09.018Z,0.00
2017-11-16T06:05:08.990Z,0.00
2017-11-16T06:06:08.992Z,0.00
2017-11-16T06:07:08.943Z,0.00
2017-11-16T06:08:08.918Z,0.00
2017-11-16T06:09:08.895Z,4.00
2017-11-16T06:10:08.874Z,0.00
2017-11-16T06:11:08.866Z,0.00
2017-11-16T06:12:08.826Z,0.00
2017-11-16T06:13:08.802Z,0.00
2017-11-16T06:14:08.775Z,0.00
2017-11-16T06:15:08.801Z,4.00
2017-11-16T06:16:08.738Z,0.00
2017-11-16T06:17:08.717Z,0.00
2017-11-16T06:18:08.684Z,4.00
2017-11-16T06:19:08.665Z,4.00
2017-11-16T06:20:08.641Z,4.00
2017-11-16T06:21:08.619Z,4.00
2017-11-16T06:22:08.602Z,8.00
2017-11-16T06:23:08.614Z,8.00
2017-11-16T06:24:08.546Z,8.00
2017-11-16T06:25:08.526Z,12.00
2017-11-16T06:26:08.508Z,12.00
2017-11-16T06:27:08.481Z,12.00
2017-11-16T06:28:08.480Z,12.00
2017-11-16T06:29:08.437Z,16.00
2017-11-16T06:30:08.405Z,16.00
2017-11-16T06:31:08.385Z,20.00
2017-11-16T06:32:08.372Z,24.00
2017-11-16T06:33:08.363Z,20.00
2017-11-16T06:34:08.311Z,24.00
2017-11-16T06:35:08.289Z,28.00
2017-11-16T06:36:08.300Z,28.00
2017-11-16T06:37:08.249Z,28.00
2017-11-16T06:38:08.232Z,36.00
2017-11-16T06:39:08.204Z,36.00
2017-11-16T06:40:08.193Z,40.00
2017-11-16T06:41:08.149Z,40.00
2017-11-16T06:42:08.132Z,40.00
2017-11-16T06:43:08.132Z,40.00
2017-11-16T06:44:08.086Z,44.00
2017-11-16T06:45:08.055Z,48.00
2017-11-16T06:46:08.032Z,52.00
2017-11-16T06:47:08.021Z,56.00
2017-11-16T06:48:07.994Z,56.00
2017-11-16T06:49:08.012Z,56.00
2017-11-16T06:50:07.958Z,60.00
2017-11-16T06:51:43.762Z,64.00
2017-11-16T06:52:07.892Z,64.00
2017-11-16T06:53:07.881Z,64.00
2017-11-16T06:54:07.882Z,72.00
2017-11-16T06:55:07.823Z,80.00
2017-11-16T06:56:07.800Z,84.00
2017-11-16T06:57:07.777Z,84.00
2017-11-16T06:58:07.759Z,92.00
2017-11-16T06:59:07.741Z,96.00
2017-11-16T07:00:07.709Z,96.00
2017-11-16T07:01:07.689Z,104.00
2017-11-16T07:02:07.663Z,116.00
2017-11-16T07:03:07.636Z,132.00
2017-11-16T07:04:07.609Z,148.00
2017-11-16T07:05:07.590Z,152.00
2017-11-16T07:06:07.565Z,148.00
2017-11-16T07:07:07.541Z,140.00
2017-11-16T07:08:07.515Z,124.00
2017-11-16T07:09:07.500Z,116.00
2017-11-16T07:10:07.474Z,116.00
2017-11-16T07:11:07.449Z,120.00
2017-11-16T07:12:07.425Z,128.00
2017-11-16T07:13:07.399Z,140.00
2017-11-16T07:14:07.377Z,152.00
2017-11-16T07:15:07.361Z,160.00
2017-11-16T07:16:07.325Z,164.00
2017-11-16T07:17:07.305Z,176.00
2017-11-16T07:18:07.280Z,172.00
2017-11-16T07:19:07.273Z,164.00
2017-11-16T07:20:07.239Z,164.00
2017-11-16T07:21:07.211Z,156.00
2017-11-16T07:22:13.773Z,156.00
2017-11-16T07:23:07.163Z,164.00
2017-11-16T07:24:07.140Z,168.00
2017-11-16T07:25:07.117Z,192.00
2017-11-16T07:26:07.087Z,204.00
2017-11-16T07:27:07.078Z,184.00
2017-11-16T07:28:07.043Z,184.00
2017-11-16T07:29:07.027Z,168.00
2017-11-16T07:30:06.995Z,188.00
2017-11-16T07:31:07.009Z,168.00
2017-11-16T07:32:06.957Z,180.00
2017-11-16T07:33:06.977Z,168.00
2017-11-16T07:34:06.904Z,168.00
2017-11-16T07:35:06.888Z,160.00
2017-11-16T07:36:06.857Z,152.00
2017-11-16T07:37:06.842Z,148.00
2017-11-16T07:38:06.810Z,152.00
2017-11-16T07:39:06.790Z,144.00
2017-11-16T07:40:06.760Z,140.00
2017-11-16T07:41:06.739Z,140.00
2017-11-16T07:42:06.713Z,136.00
2017-11-16T07:43:06.692Z,136.00
2017-11-16T07:44:06.668Z,136.00
2017-11-16T07:45:06.648Z,140.00
2017-11-16T07:46:06.624Z,132.00
2017-11-16T07:47:06.607Z,136.00
2017-11-16T07:48:06.569Z,136.00
2017-11-16T07:49:06.560Z,140.00
2017-11-16T07:50:06.528Z,144.00
2017-11-16T07:51:06.505Z,152.00
2017-11-16T07:52:06.479Z,152.00
2017-11-16T07:53:06.455Z,156.00
2017-11-16T07:54:06.444Z,184.00
2017-11-16T07:55:06.411Z,184.00
2017-11-16T07:56:06.388Z,192.00
2017-11-16T07:57:06.368Z,200.00
2017-11-16T07:58:06.374Z,204.00
2017-11-16T07:59:06.329Z,180.00
2017-11-16T08:00:06.292Z,180.00
2017-11-16T08:01:06.284Z,184.00
2017-11-16T08:02:06.250Z,204.00
2017-11-16T08:03:06.221Z,212.00
2017-11-16T08:04:06.202Z,208.00
2017-11-16T08:05:06.182Z,200.00
2017-11-16T08:06:06.155Z,204.00
2017-11-16T08:07:06.130Z,216.00
2017-11-16T08:08:06.100Z,208.00
2017-11-16T08:09:06.078Z,204.00
2017-11-16T08:10:06.058Z,208.00
2017-11-16T08:11:06.034Z,220.00
2017-11-16T08:12:06.056Z,220.00
2017-11-16T08:13:05.984Z,228.00
2017-11-16T08:14:05.964Z,252.00
2017-11-16T08:15:05.943Z,272.00
2017-11-16T08:16:05.915Z,276.00
2017-11-16T08:17:05.893Z,284.00
2017-11-16T08:18:05.863Z,308.00
2017-11-16T08:19:05.849Z,304.00
2017-11-16T08:20:05.988Z,316.00
2017-11-16T08:21:05.804Z,312.00
2017-11-16T08:22:05.779Z,316.00
2017-11-16T08:23:20.285Z,352.00
2017-11-16T08:24:05.729Z,396.00
2017-11-16T08:25:05.706Z,432.00
2017-11-16T08:26:05.699Z,380.00
2017-11-16T08:27:05.662Z,344.00
2017-11-16T08:28:05.961Z,372.00
2017-11-16T08:29:05.691Z,372.00
2017-11-16T08:30:05.944Z,384.00
2017-11-16T08:31:05.592Z,396.00
2017-11-16T08:32:05.541Z,336.00
2017-11-16T08:33:05.514Z,328.00
2017-11-16T08:34:05.506Z,332.00
2017-11-16T08:35:05.470Z,332.00
2017-11-16T08:36:05.454Z,340.00
2017-11-16T08:37:05.422Z,300.00
2017-11-16T08:38:05.402Z,272.00
2017-11-16T08:39:05.376Z,276.00
2017-11-16T08:40:05.353Z,276.00
2017-11-16T08:41:05.332Z,276.00
2017-11-16T08:42:05.310Z,272.00
2017-11-16T08:43:05.281Z,252.00
2017-11-16T08:44:05.266Z,252.00
2017-11-16T08:45:05.234Z,240.00
2017-11-16T08:46:05.220Z,224.00
2017-11-16T08:47:05.195Z,232.00
2017-11-16T08:48:05.166Z,240.00
2017-11-16T08:49:05.145Z,228.00
2017-11-16T08:50:05.119Z,244.00
2017-11-16T08:51:05.146Z,276.00
2017-11-16T08:52:05.081Z,308.00
2017-11-16T08:53:05.049Z,324.00
2017-11-16T08:54:05.029Z,332.00
2017-11-16T08:55:05.006Z,312.00
2017-11-16T08:56:04.987Z,284.00
2017-11-16T08:57:04.967Z,308.00
2017-11-16T08:58:04.935Z,356.00
2017-11-16T08:59:04.908Z,412.00
2017-11-16T09:00:04.885Z,484.00
2017-11-16T09:01:04.871Z,448.00
2017-11-16T09:02:04.843Z,436.00
2017-11-16T09:03:04.825Z,424.00
2017-11-16T09:04:04.793Z,432.00
2017-11-16T09:05:04.769Z,436.00
2017-11-16T09:06:04.757Z,408.00
2017-11-16T09:07:04.745Z,404.00
2017-11-16T09:08:04.699Z,364.00
2017-11-16T09:09:04.676Z,332.00
2017-11-16T09:10:04.653Z,372.00
2017-11-16T09:11:04.633Z,476.00
2017-11-16T09:12:04.605Z,500.00
2017-11-16T09:13:04.586Z,516.00
2017-11-16T09:14:04.561Z,488.00
2017-11-16T09:15:04.553Z,484.00
2017-11-16T09:16:04.516Z,456.00
2017-11-16T09:17:04.497Z,420.00
2017-11-16T09:18:04.469Z,420.00
2017-11-16T09:19:04.444Z,440.00
2017-11-16T09:20:04.419Z,452.00
2017-11-16T09:21:04.399Z,452.00
2017-11-16T09:22:04.373Z,452.00
2017-11-16T09:23:04.351Z,456.00
2017-11-16T09:24:04.330Z,452.00
2017-11-16T09:25:04.313Z,444.00
2017-11-16T09:26:04.292Z,444.00
2017-11-16T09:27:04.258Z,448.00
2017-11-16T09:28:04.232Z,452.00
2017-11-16T09:29:04.210Z,464.00
2017-11-16T09:30:04.220Z,480.00
2017-11-16T09:31:04.170Z,464.00
2017-11-16T09:32:04.144Z,460.00
2017-11-16T09:33:04.126Z,464.00
2017-11-16T09:34:04.099Z,500.00
2017-11-16T09:35:04.075Z,496.00
2017-11-16T09:36:04.049Z,552.00
2017-11-16T09:37:04.027Z,556.00
2017-11-16T09:38:04.001Z,548.00
2017-11-16T09:39:03.986Z,548.00
2017-11-16T09:40:03.957Z,576.00
2017-11-16T09:41:03.935Z,568.00
2017-11-16T09:42:03.909Z,596.00
2017-11-16T09:43:03.898Z,572.00
2017-11-16T09:44:03.864Z,580.00
2017-11-16T09:45:03.845Z,620.00
2017-11-16T09:46:03.817Z,664.00
2017-11-16T09:47:03.801Z,664.00
2017-11-16T09:48:03.771Z,672.00
2017-11-16T09:49:03.758Z,668.00
2017-11-16T09:50:03.733Z,656.00
2017-11-16T09:51:03.703Z,640.00
2017-11-16T09:52:03.675Z,652.00
2017-11-16T09:53:03.662Z,616.00
2017-11-16T09:54:03.633Z,576.00
2017-11-16T09:55:03.608Z,584.00
2017-11-16T09:56:03.588Z,600.00
2017-11-16T09:57:03.559Z,620.00
2017-11-16T09:58:03.539Z,688.00
2017-11-16T09:59:03.517Z,732.00
2017-11-16T10:00:03.492Z,744.00
2017-11-16T10:01:03.468Z,716.00
2017-11-16T10:02:03.459Z,664.00
2017-11-16T10:03:03.424Z,672.00
2017-11-16T10:04:03.402Z,692.00
2017-11-16T10:05:03.376Z,668.00
2017-11-16T10:06:03.361Z,680.00
2017-11-16T10:07:03.332Z,716.00
2017-11-16T10:08:03.314Z,724.00
2017-11-16T10:09:03.312Z,800.00
2017-11-16T10:10:03.267Z,900.00
2017-11-16T10:11:03.242Z,896.00
2017-11-16T10:12:03.213Z,1000.00
2017-11-16T10:13:03.193Z,1100.00
2017-11-16T10:14:03.169Z,1132.00
2017-11-16T10:15:03.149Z,1136.00
2017-11-16T10:16:03.129Z,1148.00
2017-11-16T10:17:03.100Z,1120.00
2017-11-16T10:18:03.077Z,1024.00
2017-11-16T10:19:03.054Z,964.00
2017-11-16T10:20:03.042Z,900.00
2017-11-16T10:21:03.014Z,924.00
2017-11-16T10:22:02.981Z,880.00
2017-11-16T10:23:02.963Z,888.00
2017-11-16T10:24:02.967Z,884.00
2017-11-16T10:25:02.922Z,864.00
2017-11-16T10:26:02.890Z,844.00
2017-11-16T10:27:02.868Z,784.00
2017-11-16T10:28:02.852Z,752.00
2017-11-16T10:29:02.824Z,772.00
2017-11-16T10:30:02.801Z,772.00
2017-11-16T10:31:02.779Z,772.00
2017-11-16T10:32:02.753Z,860.00
2017-11-16T10:33:02.733Z,944.00
2017-11-16T10:34:02.709Z,1000.00
2017-11-16T10:35:02.686Z,1120.00
2017-11-16T10:36:02.659Z,1096.00
2017-11-16T10:37:02.657Z,1156.00
2017-11-16T10:38:02.623Z,1188.00
2017-11-16T10:39:02.592Z,1260.00
2017-11-16T10:40:02.569Z,1268.00
2017-11-16T10:41:02.549Z,1252.00
2017-11-16T10:42:02.523Z,1300.00
2017-11-16T10:43:02.502Z,1480.00
2017-11-16T10:44:02.476Z,1532.00
2017-11-16T10:45:02.456Z,1260.00
2017-11-16T10:46:02.437Z,1256.00
2017-11-16T10:47:02.431Z,1260.00
2017-11-16T10:48:02.388Z,1280.00
2017-11-16T10:49:02.402Z,1320.00
2017-11-16T10:50:02.361Z,1416.00
2017-11-16T10:51:02.319Z,1360.00
2017-11-16T10:52:02.299Z,1284.00
2017-11-16T10:53:02.273Z,1220.00
2017-11-16T10:54:02.259Z,1180.00
2017-11-16T10:55:02.234Z,1144.00
2017-11-16T10:56:02.205Z,1184.00
2017-11-16T10:57:02.184Z,1260.00
2017-11-16T10:58:02.159Z,1264.00
2017-11-16T10:59:02.150Z,1260.00
2017-11-16T11:00:02.114Z,1340.00
2017-11-16T11:01:02.106Z,1376.00
2017-11-16T11:02:02.075Z,1324.00
2017-11-16T11:03:02.051Z,1484.00
2017-11-16T11:04:02.029Z,1524.00
2017-11-16T11:05:02.002Z,1380.00
2017-11-16T11:06:01.977Z,1340.00
2017-11-16T11:07:01.952Z,1312.00
2017-11-16T11:08:01.934Z,1288.00
2017-11-16T11:09:01.913Z,1336.00
2017-11-16T11:10:01.894Z,1384.00
2017-11-16T11:11:01.870Z,1456.00
2017-11-16T11:12:01.844Z,1404.00
2017-11-16T11:13:01.818Z,1388.00
2017-11-16T11:14:01.800Z,1396.00
2017-11-16T11:15:01.774Z,1444.00
2017-11-16T11:16:01.760Z,1476.00
2017-11-16T11:17:01.746Z,1436.00
2017-11-16T11:18:01.717Z,1612.00
2017-11-16T11:19:01.683Z,1692.00
2017-11-16T11:20:01.664Z,2060.00
2017-11-16T11:21:01.639Z,2188.00
2017-11-16T11:22:01.616Z,2288.00
2017-11-16T11:23:01.604Z,2296.00
2017-11-16T11:24:01.570Z,2228.00
2017-11-16T11:25:01.552Z,2136.00
2017-11-16T11:26:01.528Z,2368.00
2017-11-16T11:27:01.506Z,2484.00
2017-11-16T11:28:01.483Z,2452.00
2017-11-16T11:29:01.493Z,2528.00
2017-11-16T11:30:01.438Z,2532.00
2017-11-16T11:31:01.413Z,2500.00
2017-11-16T11:32:01.393Z,2352.00
2017-11-16T11:33:01.369Z,2212.00
2017-11-16T11:34:01.350Z,2096.00
2017-11-16T11:35:01.326Z,1980.00
2017-11-16T11:36:01.303Z,2280.00
2017-11-16T11:37:01.281Z,2180.00
2017-11-16T11:38:01.259Z,2032.00
2017-11-16T11:39:01.238Z,2016.00
2017-11-16T11:40:01.214Z,2240.00
2017-11-16T11:41:01.196Z,2128.00
2017-11-16T11:42:01.170Z,2136.00
2017-11-16T11:43:01.150Z,2132.00
2017-11-16T11:44:01.128Z,1996.00
2017-11-16T11:45:01.110Z,1928.00
2017-11-16T11:46:01.080Z,1964.00
2017-11-16T11:47:01.066Z,1900.00
2017-11-16T11:48:01.044Z,1732.00
2017-11-16T11:49:01.016Z,1844.00
2017-11-16T11:50:00.992Z,1864.00
2017-11-16T11:51:00.973Z,1740.00
2017-11-16T11:52:00.950Z,1608.00
2017-11-16T11:53:00.927Z,1512.00
2017-11-16T11:54:03.845Z,1460.00
2017-11-16T11:55:00.889Z,1460.00
2017-11-16T11:56:00.863Z,1416.00
2017-11-16T11:57:00.843Z,1392.00
2017-11-16T11:58:00.821Z,1344.00
2017-11-16T11:59:00.797Z,1396.00
2017-11-16T12:00:00.785Z,1352.00
2017-11-16T12:01:00.753Z,1324.00
2017-11-16T12:02:00.741Z,1316.00
2017-11-16T12:03:00.715Z,1276.00
2017-11-16T12:04:00.697Z,1232.00
2017-11-16T12:05:00.668Z,1204.00
2017-11-16T12:06:00.644Z,1160.00
2017-11-16T12:07:00.622Z,1112.00
2017-11-16T12:08:00.602Z,1084.00
2017-11-16T12:09:00.625Z,1096.00
2017-11-16T12:10:00.558Z,1104.00
2017-11-16T12:11:00.533Z,1080.00
2017-11-16T12:12:00.515Z,1072.00
2017-11-16T12:13:00.489Z,1036.00
2017-11-16T12:14:00.476Z,1092.00
2017-11-16T12:15:00.453Z,1100.00
2017-11-16T12:16:00.425Z,1088.00
2017-11-16T12:17:00.403Z,1076.00
2017-11-16T12:18:00.382Z,1152.00
2017-11-16T12:19:00.370Z,1240.00
2017-11-16T12:20:00.338Z,1228.00
2017-11-16T12:21:00.315Z,1148.00
2017-11-16T12:22:00.299Z,1084.00
2017-11-16T12:23:00.275Z,1000.00
2017-11-16T12:24:00.256Z,984.00
2017-11-16T12:25:00.236Z,964.00
2017-11-16T12:26:00.212Z,940.00
2017-11-16T12:27:00.187Z,968.00
2017-11-16T12:28:00.169Z,1060.00
2017-11-16T12:29:00.147Z,1084.00
2017-11-16T12:30:00.120Z,1140.00
2017-11-16T12:31:00.101Z,1300.00
2017-11-16T12:32:00.076Z,1356.00
2017-11-16T12:33:00.060Z,1188.00
2017-11-16T12:34:00.034Z,1084.00
2017-11-16T12:35:00.015Z,1036.00
2017-11-16T12:35:59.990Z,1060.00
2017-11-16T12:36:59.965Z,1004.00
2017-11-16T12:37:59.947Z,1008.00
2017-11-16T12:38:59.923Z,1008.00
2017-11-16T12:39:59.911Z,1004.00
2017-11-16T12:40:59.879Z,1000.00
2017-11-16T12:41:59.862Z,976.00
2017-11-16T12:42:59.837Z,984.00
2017-11-16T12:43:59.814Z,992.00
2017-11-16T12:44:59.793Z,1076.00
2017-11-16T12:45:59.773Z,1136.00
2017-11-16T12:46:59.763Z,1116.00
2017-11-16T12:47:59.741Z,1068.00
2017-11-16T12:48:59.741Z,1188.00